VST1049 KSRQ-KIAH
Flight info
| Callsign | VST1049 |
|---|---|
| Flight time | 1h 55m |
| Altitude | 34000 |
| Route | TIDES1 FROOT ROZZI Y280 LEV LINKK1 |
| Aircraft | A319/M-SDE3FGHIRWY/LB1 |
Departure
| Time | 2026-04-24 13:47 |
|---|---|
| Airport | Sarasota Bradenton International Airport (KSRQ) |
Arrival
| Time | 2026-04-24 15:42 |
|---|---|
| Airport | George Bush Intercontinental Airport (KIAH) |
| Time | Latitude | Longitude | Altitude | Speed | Heading |
|---|---|---|---|---|---|
| 2026-04-24 13:31 | 27.38970 | -82.55326 | 31 ft | 0 kts | 277° |
| 2026-04-24 13:39 | 27.38969 | -82.55314 | 31 ft | 4 kts | 279° |
| 2026-04-24 13:39 | 27.38962 | -82.55285 | 31 ft | 4 kts | 293° |
| 2026-04-24 13:40 | 27.38949 | -82.55260 | 31 ft | 4 kts | 324° |
| 2026-04-24 13:40 | 27.38933 | -82.55253 | 31 ft | 1 kts | 355° |
| 2026-04-24 13:40 | 27.38930 | -82.55253 | 31 ft | 0 kts | 355° |
| 2026-04-24 13:42 | 27.38931 | -82.55253 | 31 ft | 1 kts | 355° |
| 2026-04-24 13:42 | 27.38974 | -82.55257 | 31 ft | 12 kts | 354° |
| 2026-04-24 13:42 | 27.39060 | -82.55285 | 31 ft | 14 kts | 353° |
| 2026-04-24 13:42 | 27.39155 | -82.55255 | 30 ft | 15 kts | 353° |
| 2026-04-24 13:43 | 27.39235 | -82.55335 | 30 ft | 16 kts | 315° |
| 2026-04-24 13:43 | 27.39317 | -82.55427 | 30 ft | 18 kts | 314° |
| 2026-04-24 13:43 | 27.39406 | -82.55529 | 31 ft | 19 kts | 314° |
| 2026-04-24 13:43 | 27.39495 | -82.55632 | 31 ft | 18 kts | 314° |
| 2026-04-24 13:44 | 27.39585 | -82.55735 | 31 ft | 18 kts | 314° |
| 2026-04-24 13:44 | 27.39677 | -82.55840 | 31 ft | 19 kts | 314° |
| 2026-04-24 13:44 | 27.39774 | -82.55952 | 30 ft | 20 kts | 314° |
| 2026-04-24 13:44 | 27.39867 | -82.56058 | 30 ft | 19 kts | 314° |
| 2026-04-24 13:45 | 27.39963 | -82.56167 | 30 ft | 20 kts | 314° |
| 2026-04-24 13:45 | 27.40063 | -82.56282 | 30 ft | 21 kts | 314° |
| 2026-04-24 13:45 | 27.40167 | -82.56401 | 31 ft | 22 kts | 314° |
| 2026-04-24 13:45 | 27.40269 | -82.56521 | 31 ft | 21 kts | 315° |
| 2026-04-24 13:46 | 27.40362 | -82.56614 | 31 ft | 16 kts | 333° |
| 2026-04-24 13:46 | 27.40434 | -82.56543 | 31 ft | 16 kts | 89° |
| 2026-04-24 13:46 | 27.40381 | -82.56468 | 30 ft | 11 kts | 134° |
| 2026-04-24 13:46 | 27.40294 | -82.56370 | 30 ft | 41 kts | 135° |
| 2026-04-24 13:47 | 27.39906 | -82.55926 | 28 ft | 113 kts | 135° |
| 2026-04-24 13:47 | 27.39224 | -82.55145 | 165 ft | 153 kts | 133° |
| 2026-04-24 13:47 | 27.38488 | -82.54315 | 835 ft | 152 kts | 133° |
| 2026-04-24 13:47 | 27.37753 | -82.53464 | 1525 ft | 152 kts | 134° |
| 2026-04-24 13:48 | 27.36995 | -82.52589 | 2107 ft | 165 kts | 135° |
| 2026-04-24 13:48 | 27.36139 | -82.51607 | 2475 ft | 187 kts | 135° |
| 2026-04-24 13:48 | 27.35169 | -82.50496 | 2827 ft | 211 kts | 135° |
| 2026-04-24 13:48 | 27.34102 | -82.49275 | 3461 ft | 224 kts | 135° |
| 2026-04-24 13:49 | 27.32996 | -82.48010 | 4337 ft | 228 kts | 134° |
| 2026-04-24 13:49 | 27.31871 | -82.46735 | 5244 ft | 231 kts | 135° |
| 2026-04-24 13:49 | 27.30476 | -82.45820 | 6077 ft | 239 kts | 165° |
| 2026-04-24 13:49 | 27.28817 | -82.45849 | 6902 ft | 244 kts | 198° |
| 2026-04-24 13:50 | 27.27376 | -82.46848 | 7738 ft | 247 kts | 224° |
| 2026-04-24 13:50 | 27.26210 | -82.48268 | 8656 ft | 248 kts | 236° |
| 2026-04-24 13:50 | 27.25423 | -82.50010 | 9432 ft | 258 kts | 252° |
| 2026-04-24 13:50 | 27.25043 | -82.52063 | 9897 ft | 278 kts | 261° |
| 2026-04-24 13:51 | 27.24727 | -82.54233 | 10628 ft | 284 kts | 262° |
| 2026-04-24 13:51 | 27.24706 | -82.56463 | 11418 ft | 289 kts | 278° |
| 2026-04-24 13:51 | 27.25254 | -82.58640 | 12257 ft | 292 kts | 294° |
| 2026-04-24 13:51 | 27.26347 | -82.60621 | 12800 ft | 310 kts | 309° |
| 2026-04-24 13:52 | 27.27788 | -82.62550 | 13059 ft | 333 kts | 307° |
| 2026-04-24 13:52 | 27.29196 | -82.64684 | 13574 ft | 345 kts | 304° |
| 2026-04-24 13:52 | 27.30576 | -82.66912 | 14267 ft | 349 kts | 303° |
| 2026-04-24 13:52 | 27.31944 | -82.69141 | 14965 ft | 353 kts | 303° |
| 2026-04-24 13:53 | 27.33371 | -82.71442 | 15674 ft | 356 kts | 304° |
| 2026-04-24 13:53 | 27.34806 | -82.73722 | 16390 ft | 359 kts | 304° |
| 2026-04-24 13:53 | 27.36270 | -82.76010 | 17090 ft | 362 kts | 305° |
| 2026-04-24 13:53 | 27.37756 | -82.78313 | 17785 ft | 365 kts | 305° |
| 2026-04-24 13:54 | 27.39260 | -82.80633 | 18477 ft | 369 kts | 305° |
| 2026-04-24 13:54 | 27.40779 | -82.82976 | 19091 ft | 372 kts | 305° |
| 2026-04-24 13:54 | 27.42284 | -82.85303 | 19691 ft | 374 kts | 305° |
| 2026-04-24 13:54 | 27.43821 | -82.87681 | 20318 ft | 377 kts | 305° |
| 2026-04-24 13:55 | 27.45369 | -82.90078 | 20916 ft | 380 kts | 306° |
| 2026-04-24 13:55 | 27.46926 | -82.92496 | 21518 ft | 383 kts | 306° |
| 2026-04-24 13:55 | 27.48514 | -82.94966 | 22114 ft | 386 kts | 306° |
| 2026-04-24 13:55 | 27.50070 | -82.97390 | 22677 ft | 388 kts | 306° |
| 2026-04-24 13:56 | 27.51556 | -82.99935 | 23223 ft | 391 kts | 298° |
| 2026-04-24 13:56 | 27.52630 | -83.02770 | 23740 ft | 395 kts | 289° |
| 2026-04-24 13:56 | 27.53226 | -83.05801 | 24191 ft | 400 kts | 278° |
| 2026-04-24 13:56 | 27.53379 | -83.08944 | 24641 ft | 403 kts | 274° |
| 2026-04-24 13:57 | 27.53459 | -83.12112 | 25084 ft | 406 kts | 274° |
| 2026-04-24 13:57 | 27.53542 | -83.15297 | 25513 ft | 408 kts | 274° |
| 2026-04-24 13:57 | 27.53627 | -83.18501 | 25930 ft | 410 kts | 274° |
| 2026-04-24 13:57 | 27.53712 | -83.21725 | 26370 ft | 413 kts | 274° |
| 2026-04-24 13:58 | 27.53798 | -83.24969 | 26777 ft | 415 kts | 274° |
| 2026-04-24 13:58 | 27.53882 | -83.28230 | 27201 ft | 418 kts | 274° |
| 2026-04-24 13:58 | 27.53964 | -83.31510 | 27617 ft | 420 kts | 274° |
| 2026-04-24 13:58 | 27.54044 | -83.34807 | 28019 ft | 422 kts | 274° |
| 2026-04-24 13:59 | 27.54125 | -83.38129 | 28437 ft | 424 kts | 274° |
| 2026-04-24 13:59 | 27.54207 | -83.41461 | 28831 ft | 427 kts | 274° |
| 2026-04-24 13:59 | 27.54288 | -83.44812 | 29216 ft | 429 kts | 274° |
| 2026-04-24 13:59 | 27.54368 | -83.48178 | 29593 ft | 431 kts | 274° |
| 2026-04-24 14:00 | 27.54448 | -83.51557 | 29963 ft | 433 kts | 274° |
| 2026-04-24 14:00 | 27.54527 | -83.54962 | 30287 ft | 435 kts | 274° |
| 2026-04-24 14:00 | 27.54604 | -83.58378 | 30592 ft | 437 kts | 273° |
| 2026-04-24 14:00 | 27.54683 | -83.61809 | 30896 ft | 439 kts | 273° |
| 2026-04-24 14:01 | 27.54759 | -83.65239 | 31320 ft | 437 kts | 273° |
| 2026-04-24 14:01 | 27.54832 | -83.68659 | 31754 ft | 436 kts | 273° |
| 2026-04-24 14:01 | 27.54903 | -83.72067 | 32190 ft | 434 kts | 273° |
| 2026-04-24 14:01 | 27.54973 | -83.75466 | 32623 ft | 433 kts | 273° |
| 2026-04-24 14:02 | 27.55046 | -83.78860 | 33055 ft | 432 kts | 273° |
| 2026-04-24 14:02 | 27.55120 | -83.82237 | 33491 ft | 431 kts | 273° |
| 2026-04-24 14:02 | 27.55192 | -83.85605 | 33908 ft | 430 kts | 273° |
| 2026-04-24 14:02 | 27.55264 | -83.88970 | 34020 ft | 428 kts | 273° |
| 2026-04-24 14:03 | 27.55398 | -83.95643 | 34038 ft | 424 kts | 274° |
| 2026-04-24 14:03 | 27.55532 | -84.02270 | 34038 ft | 423 kts | 274° |
| 2026-04-24 14:04 | 27.55664 | -84.08888 | 34032 ft | 422 kts | 274° |
| 2026-04-24 14:04 | 27.55794 | -84.15464 | 34032 ft | 422 kts | 276° |
| 2026-04-24 14:05 | 27.56704 | -84.21950 | 34030 ft | 419 kts | 283° |
| 2026-04-24 14:05 | 27.57764 | -84.28403 | 34025 ft | 419 kts | 282° |
| 2026-04-24 14:06 | 27.58800 | -84.34852 | 34023 ft | 417 kts | 283° |
| 2026-04-24 14:06 | 27.59834 | -84.41279 | 34030 ft | 416 kts | 283° |
| 2026-04-24 14:07 | 27.60870 | -84.47690 | 34030 ft | 415 kts | 283° |
| 2026-04-24 14:07 | 27.61900 | -84.54099 | 34029 ft | 415 kts | 283° |
| 2026-04-24 14:08 | 27.62926 | -84.60493 | 34028 ft | 414 kts | 283° |
| 2026-04-24 14:08 | 27.63945 | -84.66889 | 33995 ft | 414 kts | 283° |
| 2026-04-24 14:09 | 27.64958 | -84.73271 | 34012 ft | 413 kts | 284° |
| 2026-04-24 14:09 | 27.65799 | -84.78563 | 34020 ft | 412 kts | 284° |
| 2026-04-24 14:10 | 27.66809 | -84.84911 | 34018 ft | 411 kts | 284° |
| 2026-04-24 14:10 | 27.67819 | -84.91248 | 34016 ft | 410 kts | 284° |
| 2026-04-24 14:11 | 27.68818 | -84.97581 | 34007 ft | 410 kts | 284° |
| 2026-04-24 14:12 | 27.70306 | -85.07076 | 33992 ft | 409 kts | 284° |
| 2026-04-24 14:12 | 27.71291 | -85.13388 | 34015 ft | 407 kts | 284° |
| 2026-04-24 14:13 | 27.72272 | -85.19669 | 34027 ft | 406 kts | 284° |
| 2026-04-24 14:13 | 27.73239 | -85.25940 | 34018 ft | 405 kts | 284° |
| 2026-04-24 14:14 | 27.74648 | -85.32032 | 34007 ft | 398 kts | 297° |
| 2026-04-24 14:14 | 27.78192 | -85.40492 | 34006 ft | 397 kts | 298° |
| 2026-04-24 14:15 | 27.80532 | -85.46144 | 33992 ft | 397 kts | 297° |
| 2026-04-24 14:15 | 27.82869 | -85.51788 | 34003 ft | 396 kts | 297° |
| 2026-04-24 14:16 | 27.85212 | -85.57422 | 33995 ft | 396 kts | 297° |
| 2026-04-24 14:17 | 27.88698 | -85.65834 | 34001 ft | 396 kts | 297° |
| 2026-04-24 14:17 | 27.92191 | -85.74286 | 33997 ft | 396 kts | 297° |
| 2026-04-24 14:18 | 27.94519 | -85.79928 | 33996 ft | 396 kts | 297° |
| 2026-04-24 14:18 | 27.96844 | -85.85566 | 34000 ft | 395 kts | 297° |
| 2026-04-24 14:19 | 27.99167 | -85.91205 | 33993 ft | 395 kts | 297° |
| 2026-04-24 14:19 | 28.01484 | -85.96851 | 34007 ft | 396 kts | 297° |
| 2026-04-24 14:20 | 28.03803 | -86.02499 | 34000 ft | 396 kts | 297° |
| 2026-04-24 14:20 | 28.06122 | -86.08152 | 33997 ft | 396 kts | 297° |
| 2026-04-24 14:21 | 28.08431 | -86.13814 | 33991 ft | 396 kts | 297° |
| 2026-04-24 14:21 | 28.10742 | -86.19477 | 33981 ft | 396 kts | 297° |
| 2026-04-24 14:22 | 28.13053 | -86.25141 | 33984 ft | 396 kts | 297° |
| 2026-04-24 14:23 | 28.16526 | -86.33636 | 33991 ft | 396 kts | 297° |
| 2026-04-24 14:23 | 28.18832 | -86.39308 | 33987 ft | 396 kts | 296° |
| 2026-04-24 14:24 | 28.21132 | -86.44984 | 33985 ft | 396 kts | 296° |
| 2026-04-24 14:24 | 28.23436 | -86.50666 | 33989 ft | 396 kts | 296° |
| 2026-04-24 14:25 | 28.25730 | -86.56346 | 33993 ft | 396 kts | 296° |
| 2026-04-24 14:25 | 28.28024 | -86.62025 | 33983 ft | 396 kts | 296° |
| 2026-04-24 14:26 | 28.30314 | -86.67710 | 33986 ft | 396 kts | 296° |
| 2026-04-24 14:26 | 28.32338 | -86.73528 | 33989 ft | 398 kts | 291° |
| 2026-04-24 14:27 | 28.34093 | -86.79480 | 34009 ft | 398 kts | 290° |
| 2026-04-24 14:27 | 28.35831 | -86.85446 | 33999 ft | 398 kts | 290° |
| 2026-04-24 14:28 | 28.37554 | -86.91379 | 33987 ft | 398 kts | 290° |
| 2026-04-24 14:28 | 28.39291 | -86.97353 | 33977 ft | 398 kts | 290° |
| 2026-04-24 14:29 | 28.41036 | -87.03326 | 33984 ft | 398 kts | 290° |
| 2026-04-24 14:29 | 28.42777 | -87.09300 | 33988 ft | 398 kts | 290° |
| 2026-04-24 14:30 | 28.44221 | -87.14271 | 33989 ft | 398 kts | 290° |
| 2026-04-24 14:30 | 28.46240 | -87.21260 | 33993 ft | 398 kts | 290° |
| 2026-04-24 14:31 | 28.47969 | -87.27246 | 33997 ft | 398 kts | 290° |
| 2026-04-24 14:31 | 28.49702 | -87.33235 | 33971 ft | 398 kts | 290° |
| 2026-04-24 14:32 | 28.51418 | -87.39212 | 33991 ft | 397 kts | 290° |
| 2026-04-24 14:32 | 28.53122 | -87.45176 | 34001 ft | 396 kts | 290° |
| 2026-04-24 14:33 | 28.54827 | -87.51127 | 33998 ft | 395 kts | 290° |
| 2026-04-24 14:33 | 28.56532 | -87.57066 | 33995 ft | 395 kts | 290° |
| 2026-04-24 14:34 | 28.58231 | -87.63007 | 33988 ft | 394 kts | 290° |
| 2026-04-24 14:34 | 28.59908 | -87.68900 | 33984 ft | 394 kts | 290° |
| 2026-04-24 14:35 | 28.61601 | -87.74822 | 33973 ft | 393 kts | 290° |
| 2026-04-24 14:35 | 28.63279 | -87.80733 | 33980 ft | 392 kts | 290° |
| 2026-04-24 14:36 | 28.64950 | -87.86634 | 34006 ft | 392 kts | 290° |
| 2026-04-24 14:36 | 28.66617 | -87.92539 | 33990 ft | 392 kts | 290° |
| 2026-04-24 14:37 | 28.68286 | -87.98456 | 33981 ft | 392 kts | 290° |
| 2026-04-24 14:37 | 28.69956 | -88.04373 | 33979 ft | 393 kts | 290° |
| 2026-04-24 14:38 | 28.71628 | -88.10297 | 33962 ft | 393 kts | 290° |
| 2026-04-24 14:38 | 28.73294 | -88.16227 | 33973 ft | 393 kts | 290° |
| 2026-04-24 14:39 | 28.74947 | -88.22160 | 33979 ft | 393 kts | 290° |
| 2026-04-24 14:39 | 28.76604 | -88.28090 | 33980 ft | 393 kts | 290° |
| 2026-04-24 14:40 | 28.78265 | -88.34016 | 33982 ft | 392 kts | 290° |
| 2026-04-24 14:40 | 28.79911 | -88.39898 | 33981 ft | 392 kts | 290° |
| 2026-04-24 14:41 | 28.81564 | -88.45867 | 33977 ft | 392 kts | 290° |
| 2026-04-24 14:41 | 28.83198 | -88.51751 | 33967 ft | 391 kts | 290° |
| 2026-04-24 14:42 | 28.84578 | -88.56706 | 33980 ft | 391 kts | 290° |
| 2026-04-24 14:42 | 28.86480 | -88.63572 | 33980 ft | 390 kts | 290° |
| 2026-04-24 14:43 | 28.88107 | -88.69481 | 33981 ft | 390 kts | 290° |
| 2026-04-24 14:43 | 28.89546 | -88.75463 | 33986 ft | 392 kts | 287° |
| 2026-04-24 14:44 | 28.90776 | -88.81517 | 33986 ft | 392 kts | 286° |
| 2026-04-24 14:44 | 28.92003 | -88.87570 | 33981 ft | 391 kts | 286° |
| 2026-04-24 14:45 | 28.93281 | -88.93604 | 33988 ft | 391 kts | 286° |
| 2026-04-24 14:45 | 28.94568 | -88.99624 | 33990 ft | 390 kts | 286° |
| 2026-04-24 14:46 | 28.95842 | -89.05645 | 34013 ft | 390 kts | 286° |
| 2026-04-24 14:46 | 28.97115 | -89.11665 | 34001 ft | 390 kts | 286° |
| 2026-04-24 14:47 | 28.98172 | -89.16673 | 33997 ft | 390 kts | 286° |
| 2026-04-24 14:47 | 28.99636 | -89.23673 | 33980 ft | 390 kts | 286° |
| 2026-04-24 14:48 | 29.00893 | -89.29678 | 33982 ft | 389 kts | 286° |
| 2026-04-24 14:48 | 29.02152 | -89.35685 | 33982 ft | 388 kts | 286° |
| 2026-04-24 14:49 | 29.03400 | -89.41686 | 33981 ft | 388 kts | 285° |
| 2026-04-24 14:49 | 29.04651 | -89.47684 | 33980 ft | 388 kts | 286° |
| 2026-04-24 14:50 | 29.05903 | -89.53682 | 33979 ft | 388 kts | 285° |
| 2026-04-24 14:50 | 29.07152 | -89.59682 | 33975 ft | 388 kts | 285° |
| 2026-04-24 14:51 | 29.08387 | -89.65684 | 33974 ft | 388 kts | 285° |
| 2026-04-24 14:51 | 29.09615 | -89.71688 | 33973 ft | 388 kts | 285° |
| 2026-04-24 14:52 | 29.10846 | -89.77690 | 33971 ft | 388 kts | 285° |
| 2026-04-24 14:52 | 29.12082 | -89.83690 | 33971 ft | 388 kts | 285° |
| 2026-04-24 14:53 | 29.13313 | -89.89690 | 33971 ft | 387 kts | 285° |
| 2026-04-24 14:53 | 29.14538 | -89.95691 | 33969 ft | 387 kts | 285° |
| 2026-04-24 14:54 | 29.15760 | -90.01692 | 33957 ft | 387 kts | 285° |
| 2026-04-24 14:54 | 29.16976 | -90.07689 | 33966 ft | 387 kts | 285° |
| 2026-04-24 14:55 | 29.17914 | -90.12694 | 33972 ft | 387 kts | 282° |
| 2026-04-24 14:55 | 29.18836 | -90.19823 | 33973 ft | 388 kts | 280° |
| 2026-04-24 14:56 | 29.19531 | -90.25909 | 33974 ft | 388 kts | 280° |
| 2026-04-24 14:56 | 29.20273 | -90.32020 | 33972 ft | 388 kts | 281° |
| 2026-04-24 14:57 | 29.21049 | -90.38126 | 33970 ft | 388 kts | 281° |
| 2026-04-24 14:57 | 29.21823 | -90.44229 | 33971 ft | 387 kts | 281° |
| 2026-04-24 14:58 | 29.22594 | -90.50321 | 33978 ft | 386 kts | 281° |
| 2026-04-24 14:58 | 29.23361 | -90.56403 | 33974 ft | 386 kts | 281° |
| 2026-04-24 14:59 | 29.24124 | -90.62482 | 33965 ft | 386 kts | 281° |
| 2026-04-24 14:59 | 29.24760 | -90.67572 | 33984 ft | 386 kts | 281° |
| 2026-04-24 15:00 | 29.25507 | -90.73612 | 33992 ft | 386 kts | 280° |
| 2026-04-24 15:00 | 29.26265 | -90.79751 | 33972 ft | 396 kts | 280° |
| 2026-04-24 15:01 | 29.27044 | -90.86066 | 33975 ft | 403 kts | 280° |
| 2026-04-24 15:01 | 29.27817 | -90.92423 | 33972 ft | 403 kts | 280° |
| 2026-04-24 15:02 | 29.28592 | -90.98784 | 33972 ft | 403 kts | 280° |
| 2026-04-24 15:02 | 29.29364 | -91.05149 | 33972 ft | 403 kts | 280° |
| 2026-04-24 15:03 | 29.30136 | -91.11515 | 33973 ft | 404 kts | 280° |
| 2026-04-24 15:03 | 29.30908 | -91.17882 | 33979 ft | 403 kts | 279° |
| 2026-04-24 15:04 | 29.31668 | -91.24234 | 33987 ft | 402 kts | 279° |
| 2026-04-24 15:04 | 29.32423 | -91.30570 | 33988 ft | 401 kts | 279° |
| 2026-04-24 15:05 | 29.33176 | -91.36894 | 33990 ft | 400 kts | 279° |
| 2026-04-24 15:05 | 29.33928 | -91.43211 | 33980 ft | 400 kts | 279° |
| 2026-04-24 15:06 | 29.34676 | -91.49521 | 33973 ft | 399 kts | 279° |
| 2026-04-24 15:06 | 29.35416 | -91.55790 | 33975 ft | 399 kts | 279° |
| 2026-04-24 15:07 | 29.36156 | -91.62084 | 33985 ft | 398 kts | 279° |
| 2026-04-24 15:07 | 29.36886 | -91.68364 | 33971 ft | 397 kts | 279° |
| 2026-04-24 15:08 | 29.37613 | -91.74631 | 33964 ft | 396 kts | 279° |
| 2026-04-24 15:08 | 29.38337 | -91.80891 | 33959 ft | 396 kts | 279° |
| 2026-04-24 15:09 | 29.39062 | -91.87151 | 33950 ft | 396 kts | 279° |
| 2026-04-24 15:09 | 29.39778 | -91.93418 | 33927 ft | 396 kts | 279° |
| 2026-04-24 15:10 | 29.40491 | -91.99683 | 33931 ft | 396 kts | 279° |
| 2026-04-24 15:10 | 29.41204 | -92.05953 | 33935 ft | 397 kts | 279° |
| 2026-04-24 15:11 | 29.41913 | -92.12227 | 33942 ft | 397 kts | 279° |
| 2026-04-24 15:11 | 29.42618 | -92.18503 | 33938 ft | 397 kts | 279° |
| 2026-04-24 15:12 | 29.43328 | -92.24779 | 33939 ft | 397 kts | 279° |
| 2026-04-24 15:12 | 29.44383 | -92.34191 | 33953 ft | 396 kts | 279° |
| 2026-04-24 15:13 | 29.45077 | -92.40452 | 33943 ft | 395 kts | 279° |
| 2026-04-24 15:13 | 29.45749 | -92.46705 | 33948 ft | 395 kts | 278° |
| 2026-04-24 15:14 | 29.46130 | -92.52996 | 33947 ft | 396 kts | 275° |
| 2026-04-24 15:14 | 29.46347 | -92.59304 | 33943 ft | 396 kts | 275° |
| 2026-04-24 15:15 | 29.46585 | -92.65606 | 33938 ft | 395 kts | 276° |
| 2026-04-24 15:15 | 29.46872 | -92.71904 | 33952 ft | 394 kts | 276° |
| 2026-04-24 15:16 | 29.47172 | -92.78176 | 33961 ft | 393 kts | 276° |
| 2026-04-24 15:16 | 29.47460 | -92.84436 | 33956 ft | 392 kts | 276° |
| 2026-04-24 15:17 | 29.47741 | -92.90686 | 33938 ft | 392 kts | 276° |
| 2026-04-24 15:17 | 29.48016 | -92.96888 | 33933 ft | 392 kts | 276° |
| 2026-04-24 15:18 | 29.48288 | -93.03130 | 33932 ft | 392 kts | 276° |
| 2026-04-24 15:18 | 29.48555 | -93.09370 | 33918 ft | 391 kts | 275° |
| 2026-04-24 15:19 | 29.48807 | -93.15608 | 33917 ft | 391 kts | 275° |
| 2026-04-24 15:19 | 29.48928 | -93.18730 | 33720 ft | 393 kts | 275° |
| 2026-04-24 15:19 | 29.49051 | -93.21863 | 33319 ft | 393 kts | 275° |
| 2026-04-24 15:20 | 29.49174 | -93.25004 | 33061 ft | 395 kts | 275° |
| 2026-04-24 15:20 | 29.49300 | -93.28159 | 32802 ft | 397 kts | 275° |
| 2026-04-24 15:20 | 29.49427 | -93.31329 | 32547 ft | 399 kts | 275° |
| 2026-04-24 15:20 | 29.49552 | -93.34513 | 32294 ft | 400 kts | 275° |
| 2026-04-24 15:21 | 29.49677 | -93.37719 | 31578 ft | 405 kts | 274° |
| 2026-04-24 15:21 | 29.49801 | -93.40963 | 30561 ft | 408 kts | 274° |
| 2026-04-24 15:21 | 29.49922 | -93.44225 | 29826 ft | 409 kts | 274° |
| 2026-04-24 15:21 | 29.50043 | -93.47509 | 29226 ft | 414 kts | 274° |
| 2026-04-24 15:22 | 29.50166 | -93.50826 | 28609 ft | 418 kts | 274° |
| 2026-04-24 15:22 | 29.50291 | -93.54173 | 27996 ft | 422 kts | 274° |
| 2026-04-24 15:22 | 29.50417 | -93.57549 | 27379 ft | 425 kts | 274° |
| 2026-04-24 15:23 | 29.50668 | -93.64396 | 26140 ft | 433 kts | 273° |
| 2026-04-24 15:23 | 29.50916 | -93.71335 | 24881 ft | 436 kts | 273° |
| 2026-04-24 15:23 | 29.51039 | -93.74820 | 24260 ft | 437 kts | 273° |
| 2026-04-24 15:24 | 29.51418 | -93.85336 | 22423 ft | 441 kts | 272° |
| 2026-04-24 15:25 | 29.51619 | -93.91174 | 21518 ft | 438 kts | 272° |
| 2026-04-24 15:25 | 29.51898 | -93.99295 | 20212 ft | 433 kts | 272° |
| 2026-04-24 15:26 | 29.52245 | -94.09525 | 18439 ft | 426 kts | 272° |
| 2026-04-24 15:27 | 29.52593 | -94.19629 | 16723 ft | 418 kts | 272° |
| 2026-04-24 15:27 | 29.53314 | -94.29461 | 15011 ft | 409 kts | 287° |
| 2026-04-24 15:28 | 29.58987 | -94.39973 | 12058 ft | 367 kts | 301° |
| 2026-04-24 15:29 | 29.61736 | -94.44692 | 10728 ft | 342 kts | 301° |
| 2026-04-24 15:30 | 29.65310 | -94.50894 | 10226 ft | 285 kts | 300° |
| 2026-04-24 15:31 | 29.69813 | -94.58202 | 9456 ft | 277 kts | 301° |
| 2026-04-24 15:32 | 29.74127 | -94.65568 | 7845 ft | 277 kts | 301° |
| 2026-04-24 15:33 | 29.78449 | -94.72799 | 6375 ft | 273 kts | 301° |
| 2026-04-24 15:33 | 29.81685 | -94.78126 | 5186 ft | 270 kts | 301° |
| 2026-04-24 15:34 | 29.83833 | -94.81648 | 4364 ft | 268 kts | 301° |
| 2026-04-24 15:35 | 29.87014 | -94.86865 | 3106 ft | 263 kts | 301° |
| 2026-04-24 15:35 | 29.89133 | -94.90291 | 2967 ft | 263 kts | 301° |
| 2026-04-24 15:35 | 29.90187 | -94.91996 | 2588 ft | 260 kts | 301° |
| 2026-04-24 15:36 | 29.91240 | -94.93693 | 2152 ft | 260 kts | 301° |
| 2026-04-24 15:36 | 29.93329 | -94.97082 | 1991 ft | 259 kts | 298° |
| 2026-04-24 15:36 | 29.94167 | -94.98898 | 1989 ft | 255 kts | 291° |
| 2026-04-24 15:37 | 29.94910 | -95.00756 | 1996 ft | 255 kts | 290° |
| 2026-04-24 15:37 | 29.95642 | -95.02618 | 1994 ft | 256 kts | 290° |
| 2026-04-24 15:37 | 29.96139 | -95.03882 | 1994 ft | 256 kts | 290° |
| 2026-04-24 15:37 | 29.97120 | -95.06364 | 1992 ft | 257 kts | 290° |
| 2026-04-24 15:38 | 29.97786 | -95.08268 | 1997 ft | 256 kts | 286° |
| 2026-04-24 15:38 | 29.98321 | -95.10217 | 1995 ft | 254 kts | 281° |
| 2026-04-24 15:38 | 29.98755 | -95.12188 | 1994 ft | 254 kts | 279° |
| 2026-04-24 15:38 | 29.99139 | -95.14174 | 2000 ft | 253 kts | 277° |
| 2026-04-24 15:39 | 29.99340 | -95.16182 | 2000 ft | 252 kts | 269° |
| 2026-04-24 15:39 | 29.99357 | -95.18190 | 1994 ft | 244 kts | 266° |
| 2026-04-24 15:39 | 29.99349 | -95.20045 | 1997 ft | 219 kts | 266° |
| 2026-04-24 15:39 | 29.99347 | -95.21739 | 1868 ft | 205 kts | 265° |
| 2026-04-24 15:40 | 29.99346 | -95.23348 | 1653 ft | 194 kts | 266° |
| 2026-04-24 15:40 | 29.99347 | -95.24840 | 1408 ft | 178 kts | 265° |
| 2026-04-24 15:40 | 29.99348 | -95.26191 | 1207 ft | 157 kts | 266° |
| 2026-04-24 15:40 | 29.99349 | -95.27377 | 1003 ft | 139 kts | 263° |
| 2026-04-24 15:41 | 29.99348 | -95.28452 | 829 ft | 130 kts | 264° |
| 2026-04-24 15:41 | 29.99347 | -95.29493 | 662 ft | 129 kts | 268° |
| 2026-04-24 15:41 | 29.99345 | -95.30529 | 494 ft | 130 kts | 265° |
| 2026-04-24 15:41 | 29.99345 | -95.31582 | 309 ft | 132 kts | 266° |
| 2026-04-24 15:42 | 29.99343 | -95.32637 | 135 ft | 131 kts | 265° |
| 2026-04-24 15:42 | 29.99342 | -95.33560 | 109 ft | 94 kts | 271° |
| 2026-04-24 15:42 | 29.99340 | -95.34137 | 105 ft | 58 kts | 269° |
| 2026-04-24 15:42 | 29.99339 | -95.34544 | 106 ft | 36 kts | 271° |
| 2026-04-24 15:43 | 29.99286 | -95.34783 | 106 ft | 25 kts | 239° |
| 2026-04-24 15:43 | 29.99214 | -95.34926 | 107 ft | 20 kts | 239° |
| 2026-04-24 15:43 | 29.99120 | -95.35046 | 106 ft | 21 kts | 211° |
| 2026-04-24 15:43 | 29.98989 | -95.35077 | 107 ft | 19 kts | 180° |
| 2026-04-24 15:44 | 29.98904 | -95.35076 | 107 ft | 8 kts | 178° |
| 2026-04-24 15:44 | 29.98887 | -95.35067 | 107 ft | 1 kts | 140° |
| 2026-04-24 15:44 | 29.98884 | -95.35046 | 107 ft | 4 kts | 95° |
| 2026-04-24 15:44 | 29.98882 | -95.35007 | 107 ft | 4 kts | 89° |
| 2026-04-24 15:45 | 29.98882 | -95.34988 | 107 ft | 0 kts | 90° |